createdAt,value
2023-08-12T00:07:57.267Z,20.6
2023-08-12T00:19:57.277Z,20.4
2023-08-12T00:31:57.310Z,20.2
2023-08-12T00:43:57.262Z,20.1
2023-08-12T00:55:57.293Z,19.9
2023-08-12T01:07:57.260Z,19.7
2023-08-12T01:19:57.268Z,19.5
2023-08-12T01:31:57.265Z,19.3
2023-08-12T01:43:57.262Z,19.3
2023-08-12T01:55:57.396Z,19.2
2023-08-12T02:07:57.463Z,18.9
2023-08-12T02:19:57.262Z,18.7
2023-08-12T02:31:57.300Z,18.6
2023-08-12T02:43:57.283Z,18.5
2023-08-12T02:55:57.265Z,18.5
2023-08-12T03:07:57.267Z,18.6
2023-08-12T03:19:57.266Z,18.6
2023-08-12T03:31:57.271Z,18.5
2023-08-12T03:43:57.269Z,18.6
2023-08-12T03:55:57.266Z,18.6
2023-08-12T04:07:57.257Z,18.4
2023-08-12T04:19:57.266Z,18.3
2023-08-12T04:31:57.284Z,18.2
2023-08-12T04:43:57.263Z,18.1
2023-08-12T04:55:57.272Z,18.0
2023-08-12T05:07:57.269Z,18.1
2023-08-12T05:19:57.433Z,18.2
2023-08-12T05:31:57.338Z,18.6
2023-08-12T05:43:57.254Z,18.9
2023-08-12T05:55:57.269Z,19.0
2023-08-12T06:07:57.270Z,19.3
2023-08-12T06:19:57.259Z,19.4
2023-08-12T06:31:57.369Z,19.4
2023-08-12T06:43:57.318Z,19.2
2023-08-12T06:55:57.391Z,19.3
2023-08-12T07:07:57.253Z,19.4
2023-08-12T07:19:57.278Z,19.4
2023-08-12T07:31:57.283Z,19.2
2023-08-12T07:43:57.747Z,19.2
2023-08-12T07:55:57.280Z,19.3
2023-08-12T08:07:57.279Z,19.6
2023-08-12T08:19:57.337Z,19.5
2023-08-12T08:31:57.377Z,19.5
2023-08-12T08:43:57.304Z,19.7
2023-08-12T08:56:01.432Z,19.7
2023-08-12T09:07:57.378Z,20.1
2023-08-12T09:19:57.256Z,20.1
2023-08-12T09:31:58.057Z,20.3
2023-08-12T09:43:57.282Z,20.3
2023-08-12T09:55:57.357Z,20.6
2023-08-12T10:07:57.327Z,20.8
2023-08-12T10:19:57.255Z,20.8
2023-08-12T10:31:57.285Z,21.9
2023-08-12T10:43:57.254Z,21.8
2023-08-12T10:55:57.274Z,22.6
2023-08-12T11:07:57.329Z,21.4
2023-08-12T11:19:57.259Z,21.0
2023-08-12T11:31:57.326Z,20.8
2023-08-12T11:43:57.257Z,21.2
2023-08-12T11:55:57.276Z,21.3
2023-08-12T12:07:57.282Z,21.4
2023-08-12T12:19:57.256Z,21.5
2023-08-12T12:31:57.290Z,21.6
2023-08-12T12:43:57.261Z,22.4
2023-08-12T12:55:57.381Z,22.5
2023-08-12T13:07:57.267Z,22.5
2023-08-12T13:19:57.387Z,22.4
2023-08-12T13:31:57.396Z,22.3
2023-08-12T13:43:57.401Z,22.3
2023-08-12T13:55:57.266Z,22.4
2023-08-12T14:07:57.276Z,22.5
2023-08-12T14:19:57.398Z,22.3
2023-08-12T14:31:57.375Z,22.3
2023-08-12T14:43:57.253Z,22.5
2023-08-12T14:55:57.315Z,22.5
2023-08-12T15:07:57.326Z,22.4
2023-08-12T15:19:57.285Z,22.3
2023-08-12T15:31:57.268Z,22.9
2023-08-12T15:43:57.272Z,22.7
2023-08-12T15:55:57.359Z,22.6
2023-08-12T16:07:58.660Z,22.7
2023-08-12T16:19:57.352Z,22.3
2023-08-12T16:31:57.314Z,21.7
2023-08-12T16:43:57.255Z,21.6
2023-08-12T16:55:57.504Z,21.4
2023-08-12T17:07:57.344Z,20.9
2023-08-12T17:19:57.366Z,21.0
2023-08-12T17:31:57.335Z,20.9
2023-08-12T17:43:57.355Z,21.0
2023-08-12T17:55:57.377Z,20.7
2023-08-12T18:07:57.269Z,20.6
2023-08-12T18:19:57.335Z,20.3
2023-08-12T18:31:57.356Z,20.1
2023-08-12T18:43:57.911Z,19.9
2023-08-12T18:55:57.420Z,19.8
2023-08-12T19:07:57.328Z,19.9
2023-08-12T19:19:57.397Z,19.7
2023-08-12T19:31:57.344Z,19.5
2023-08-12T19:43:57.257Z,19.0
2023-08-12T19:55:57.368Z,18.8
2023-08-12T20:07:57.382Z,18.9
2023-08-12T20:19:57.271Z,19.0
2023-08-12T20:31:57.269Z,18.9
2023-08-12T20:43:57.279Z,18.5
2023-08-12T20:55:57.319Z,17.9
2023-08-12T21:07:57.381Z,17.4
2023-08-12T21:19:57.751Z,17.3
2023-08-12T21:31:57.379Z,17.1
2023-08-12T21:43:57.382Z,16.9
2023-08-12T21:55:57.460Z,16.6
2023-08-12T22:07:57.271Z,16.6
2023-08-12T22:19:57.383Z,16.7
2023-08-12T22:31:57.345Z,16.4
2023-08-12T22:43:57.257Z,16.3
2023-08-12T22:55:57.283Z,16.3
2023-08-12T23:07:57.261Z,16.2
2023-08-12T23:19:57.250Z,16.2
2023-08-12T23:31:57.254Z,16.0
2023-08-12T23:43:57.279Z,15.8
2023-08-12T23:55:57.259Z,15.9
